Terminal Aerodrome Forecast
Issued by NWS Raleigh/Durham, NC

Home | Current Version | Previous Version | Text Only | Print | Product List | Glossary On
Versions: 1 2 3 4 5 6 7 8 9 10 11 12 13 14 15 16 17 18 19 20 21 22 23 24 25 26 27 28 29 30
605
FTUS42 KRAH 240520
TAFFAY
TAF
KFAY 240520Z 2406/2506 VRB03KT P6SM SCT250
     FM241700 05010G16KT P6SM FEW045 SCT250
     FM250000 03005KT P6SM BKN250=

USA.gov is the U.S. government's official web portal to all federal, state and local government web resources and services.